All Healing Springs, North Carolina
Current Conditions -  °F | °C
As of 8:43 PM on Wednesday 26 Nov 2014 (Local Time) from KHKY Reporting Station
Light Rain Light Rain  
Wind Chill: 40°   Ceiling: 3300
Heat Index: 43°   Visibility: 5mi
Dew Point: 41°   Wind: 5mph
Humidity: 93%   Direction: 40°NE
Pressure: 30"   Gusts: NA
Location:  35.9243°N, 81.216°W
Report Text: KHKY 270143Z AUTO 04004KT 5SM -RA BR SCT018 BKN033 OVC050 06/05 A3000 RMK AO2 RAB0058 P0009 T00610050
Loading
Personal Weather Stations






























Interactive Weather Map New forecast layout! Learn more

10-Day Weather Forecast

Advertisements
Track Severe Weather on mobile